sensor_id;sensor_type;location;lat;lon;timestamp;P1;durP1;ratioP1;P2;durP2;ratioP2
52816;SDS011;38687;43.330;21.924;2023-04-20T00:01:53;16.00;;;10.57;;
52816;SDS011;38687;43.330;21.924;2023-04-20T00:04:19;18.20;;;12.45;;
52816;SDS011;38687;43.330;21.924;2023-04-20T00:06:45;16.75;;;12.27;;
52816;SDS011;38687;43.330;21.924;2023-04-20T00:09:11;16.35;;;11.57;;
52816;SDS011;38687;43.330;21.924;2023-04-20T00:11:38;16.13;;;10.63;;
52816;SDS011;38687;43.330;21.924;2023-04-20T00:14:04;14.27;;;10.55;;
52816;SDS011;38687;43.330;21.924;2023-04-20T00:16:30;16.52;;;10.27;;
52816;SDS011;38687;43.330;21.924;2023-04-20T00:18:57;13.52;;;9.32;;
52816;SDS011;38687;43.330;21.924;2023-04-20T00:21:25;13.68;;;10.57;;
52816;SDS011;38687;43.330;21.924;2023-04-20T00:23:51;12.48;;;9.60;;
52816;SDS011;38687;43.330;21.924;2023-04-20T00:26:17;11.52;;;7.80;;
52816;SDS011;38687;43.330;21.924;2023-04-20T00:28:43;12.48;;;8.60;;
52816;SDS011;38687;43.330;21.924;2023-04-20T00:31:09;9.63;;;8.43;;
52816;SDS011;38687;43.330;21.924;2023-04-20T00:33:38;11.10;;;8.00;;
52816;SDS011;38687;43.330;21.924;2023-04-20T00:36:06;14.18;;;8.30;;
52816;SDS011;38687;43.330;21.924;2023-04-20T00:38:35;12.65;;;9.00;;
52816;SDS011;38687;43.330;21.924;2023-04-20T00:41:01;12.52;;;9.00;;
52816;SDS011;38687;43.330;21.924;2023-04-20T00:43:27;13.10;;;9.20;;
52816;SDS011;38687;43.330;21.924;2023-04-20T00:45:55;17.63;;;9.73;;
52816;SDS011;38687;43.330;21.924;2023-04-20T00:48:21;15.93;;;10.25;;
52816;SDS011;38687;43.330;21.924;2023-04-20T00:50:46;14.05;;;10.38;;
52816;SDS011;38687;43.330;21.924;2023-04-20T00:53:16;11.82;;;9.60;;
52816;SDS011;38687;43.330;21.924;2023-04-20T00:55:43;19.60;;;13.23;;
52816;SDS011;38687;43.330;21.924;2023-04-20T00:58:09;21.42;;;13.27;;
52816;SDS011;38687;43.330;21.924;2023-04-20T01:00:36;19.65;;;15.05;;
52816;SDS011;38687;43.330;21.924;2023-04-20T01:03:01;23.30;;;16.88;;
52816;SDS011;38687;43.330;21.924;2023-04-20T01:05:30;21.52;;;14.93;;
52816;SDS011;38687;43.330;21.924;2023-04-20T01:07:56;19.38;;;13.40;;
52816;SDS011;38687;43.330;21.924;2023-04-20T01:10:22;20.30;;;14.98;;
52816;SDS011;38687;43.330;21.924;2023-04-20T01:12:47;23.00;;;14.45;;
52816;SDS011;38687;43.330;21.924;2023-04-20T01:15:13;18.35;;;13.63;;
52816;SDS011;38687;43.330;21.924;2023-04-20T01:17:39;18.95;;;14.07;;
52816;SDS011;38687;43.330;21.924;2023-04-20T01:20:08;16.13;;;11.57;;
52816;SDS011;38687;43.330;21.924;2023-04-20T01:22:45;19.73;;;13.43;;
52816;SDS011;38687;43.330;21.924;2023-04-20T01:25:16;17.42;;;11.18;;
52816;SDS011;38687;43.330;21.924;2023-04-20T01:27:42;14.40;;;10.63;;
52816;SDS011;38687;43.330;21.924;2023-04-20T01:30:07;13.85;;;10.35;;
52816;SDS011;38687;43.330;21.924;2023-04-20T01:32:33;14.63;;;10.85;;
52816;SDS011;38687;43.330;21.924;2023-04-20T01:34:59;14.50;;;11.23;;
52816;SDS011;38687;43.330;21.924;2023-04-20T01:37:25;15.00;;;11.40;;
52816;SDS011;38687;43.330;21.924;2023-04-20T01:39:50;19.00;;;10.85;;
52816;SDS011;38687;43.330;21.924;2023-04-20T01:42:16;13.80;;;10.45;;
52816;SDS011;38687;43.330;21.924;2023-04-20T01:44:41;13.85;;;10.45;;
52816;SDS011;38687;43.330;21.924;2023-04-20T01:47:07;16.42;;;11.13;;
52816;SDS011;38687;43.330;21.924;2023-04-20T01:49:32;20.45;;;10.95;;
52816;SDS011;38687;43.330;21.924;2023-04-20T01:51:58;16.10;;;12.18;;
52816;SDS011;38687;43.330;21.924;2023-04-20T01:54:23;14.57;;;11.07;;
52816;SDS011;38687;43.330;21.924;2023-04-20T01:56:48;16.27;;;11.18;;
52816;SDS011;38687;43.330;21.924;2023-04-20T01:59:14;14.32;;;11.43;;
52816;SDS011;38687;43.330;21.924;2023-04-20T02:01:39;14.98;;;11.68;;
52816;SDS011;38687;43.330;21.924;2023-04-20T02:04:05;14.82;;;12.00;;
52816;SDS011;38687;43.330;21.924;2023-04-20T02:06:30;18.60;;;12.70;;
52816;SDS011;38687;43.330;21.924;2023-04-20T02:08:57;16.75;;;12.55;;
52816;SDS011;38687;43.330;21.924;2023-04-20T02:11:22;14.75;;;12.52;;
52816;SDS011;38687;43.330;21.924;2023-04-20T02:13:47;18.15;;;13.85;;
52816;SDS011;38687;43.330;21.924;2023-04-20T02:16:13;19.63;;;14.35;;
52816;SDS011;38687;43.330;21.924;2023-04-20T02:18:38;21.63;;;14.52;;
52816;SDS011;38687;43.330;21.924;2023-04-20T02:21:04;28.73;;;16.38;;
52816;SDS011;38687;43.330;21.924;2023-04-20T02:23:30;26.38;;;15.30;;
52816;SDS011;38687;43.330;21.924;2023-04-20T02:25:55;22.85;;;15.18;;
52816;SDS011;38687;43.330;21.924;2023-04-20T02:28:21;23.38;;;14.02;;
52816;SDS011;38687;43.330;21.924;2023-04-20T02:30:46;23.60;;;13.65;;
52816;SDS011;38687;43.330;21.924;2023-04-20T02:33:12;22.02;;;13.55;;
52816;SDS011;38687;43.330;21.924;2023-04-20T02:35:39;16.63;;;12.55;;
52816;SDS011;38687;43.330;21.924;2023-04-20T02:38:05;16.20;;;12.90;;
52816;SDS011;38687;43.330;21.924;2023-04-20T02:40:30;21.02;;;12.95;;
52816;SDS011;38687;43.330;21.924;2023-04-20T02:42:55;14.65;;;11.85;;
52816;SDS011;38687;43.330;21.924;2023-04-20T02:45:21;15.75;;;11.73;;
52816;SDS011;38687;43.330;21.924;2023-04-20T02:47:46;20.48;;;13.55;;
52816;SDS011;38687;43.330;21.924;2023-04-20T02:50:12;17.80;;;13.48;;
52816;SDS011;38687;43.330;21.924;2023-04-20T02:52:38;20.73;;;13.55;;
52816;SDS011;38687;43.330;21.924;2023-04-20T02:55:04;21.58;;;13.68;;
52816;SDS011;38687;43.330;21.924;2023-04-20T02:57:30;19.80;;;13.70;;
52816;SDS011;38687;43.330;21.924;2023-04-20T02:59:55;18.23;;;13.05;;
52816;SDS011;38687;43.330;21.924;2023-04-20T03:02:21;20.02;;;12.70;;
52816;SDS011;38687;43.330;21.924;2023-04-20T03:04:46;16.95;;;12.95;;
52816;SDS011;38687;43.330;21.924;2023-04-20T03:07:11;20.05;;;13.68;;
52816;SDS011;38687;43.330;21.924;2023-04-20T03:09:38;17.50;;;12.88;;
52816;SDS011;38687;43.330;21.924;2023-04-20T03:12:04;17.20;;;12.73;;
52816;SDS011;38687;43.330;21.924;2023-04-20T03:14:30;21.65;;;13.63;;
52816;SDS011;38687;43.330;21.924;2023-04-20T03:16:55;26.45;;;15.73;;
52816;SDS011;38687;43.330;21.924;2023-04-20T03:19:21;24.48;;;16.60;;
52816;SDS011;38687;43.330;21.924;2023-04-20T03:21:47;26.55;;;16.90;;
52816;SDS011;38687;43.330;21.924;2023-04-20T03:24:12;25.23;;;15.98;;
52816;SDS011;38687;43.330;21.924;2023-04-20T03:26:38;21.27;;;14.30;;
52816;SDS011;38687;43.330;21.924;2023-04-20T03:29:03;18.60;;;13.30;;
52816;SDS011;38687;43.330;21.924;2023-04-20T03:31:28;18.13;;;12.18;;
52816;SDS011;38687;43.330;21.924;2023-04-20T03:33:54;14.65;;;12.77;;
52816;SDS011;38687;43.330;21.924;2023-04-20T03:36:19;16.90;;;11.80;;
52816;SDS011;38687;43.330;21.924;2023-04-20T03:38:45;19.40;;;12.48;;
52816;SDS011;38687;43.330;21.924;2023-04-20T03:41:10;19.13;;;14.07;;
52816;SDS011;38687;43.330;21.924;2023-04-20T03:43:36;15.05;;;12.85;;
52816;SDS011;38687;43.330;21.924;2023-04-20T03:46:01;19.60;;;13.05;;
52816;SDS011;38687;43.330;21.924;2023-04-20T03:48:26;23.55;;;15.85;;
52816;SDS011;38687;43.330;21.924;2023-04-20T03:50:52;35.88;;;18.15;;
52816;SDS011;38687;43.330;21.924;2023-04-20T03:53:17;54.05;;;23.42;;
52816;SDS011;38687;43.330;21.924;2023-04-20T03:55:43;28.83;;;17.05;;
52816;SDS011;38687;43.330;21.924;2023-04-20T03:58:08;22.35;;;13.02;;
52816;SDS011;38687;43.330;21.924;2023-04-20T04:00:34;22.13;;;13.60;;
52816;SDS011;38687;43.330;21.924;2023-04-20T04:02:59;18.02;;;12.25;;
52816;SDS011;38687;43.330;21.924;2023-04-20T04:05:24;17.17;;;11.10;;
52816;SDS011;38687;43.330;21.924;2023-04-20T04:07:50;12.07;;;9.70;;
52816;SDS011;38687;43.330;21.924;2023-04-20T04:10:16;13.38;;;9.52;;
52816;SDS011;38687;43.330;21.924;2023-04-20T04:12:43;18.90;;;9.48;;
52816;SDS011;38687;43.330;21.924;2023-04-20T04:15:09;10.95;;;9.18;;
52816;SDS011;38687;43.330;21.924;2023-04-20T04:17:35;11.55;;;8.07;;
52816;SDS011;38687;43.330;21.924;2023-04-20T04:20:00;17.23;;;8.68;;
52816;SDS011;38687;43.330;21.924;2023-04-20T04:22:27;12.65;;;9.23;;
52816;SDS011;38687;43.330;21.924;2023-04-20T04:24:52;15.82;;;10.00;;
52816;SDS011;38687;43.330;21.924;2023-04-20T04:27:18;15.77;;;10.30;;
52816;SDS011;38687;43.330;21.924;2023-04-20T04:29:44;15.65;;;9.85;;
52816;SDS011;38687;43.330;21.924;2023-04-20T04:32:10;17.80;;;10.98;;
52816;SDS011;38687;43.330;21.924;2023-04-20T04:34:36;14.60;;;10.63;;
52816;SDS011;38687;43.330;21.924;2023-04-20T04:37:03;21.55;;;10.98;;
52816;SDS011;38687;43.330;21.924;2023-04-20T04:39:28;14.52;;;10.07;;
52816;SDS011;38687;43.330;21.924;2023-04-20T04:41:54;16.88;;;11.55;;
52816;SDS011;38687;43.330;21.924;2023-04-20T04:44:19;15.52;;;11.68;;
52816;SDS011;38687;43.330;21.924;2023-04-20T04:46:45;17.27;;;12.00;;
52816;SDS011;38687;43.330;21.924;2023-04-20T04:49:11;16.75;;;12.70;;
52816;SDS011;38687;43.330;21.924;2023-04-20T04:51:37;22.08;;;14.57;;
52816;SDS011;38687;43.330;21.924;2023-04-20T04:54:03;24.73;;;15.07;;
52816;SDS011;38687;43.330;21.924;2023-04-20T04:56:28;28.17;;;17.13;;
52816;SDS011;38687;43.330;21.924;2023-04-20T04:58:54;28.50;;;18.27;;
52816;SDS011;38687;43.330;21.924;2023-04-20T05:01:19;32.00;;;20.10;;
52816;SDS011;38687;43.330;21.924;2023-04-20T05:03:45;29.30;;;18.95;;
52816;SDS011;38687;43.330;21.924;2023-04-20T05:06:11;25.00;;;16.88;;
52816;SDS011;38687;43.330;21.924;2023-04-20T05:08:36;20.30;;;13.68;;
52816;SDS011;38687;43.330;21.924;2023-04-20T05:11:02;23.55;;;14.80;;
52816;SDS011;38687;43.330;21.924;2023-04-20T05:13:27;17.65;;;12.55;;
52816;SDS011;38687;43.330;21.924;2023-04-20T05:15:52;19.85;;;13.30;;
52816;SDS011;38687;43.330;21.924;2023-04-20T05:18:18;20.42;;;14.63;;
52816;SDS011;38687;43.330;21.924;2023-04-20T05:20:45;25.42;;;16.15;;
52816;SDS011;38687;43.330;21.924;2023-04-20T05:23:10;22.58;;;13.77;;
52816;SDS011;38687;43.330;21.924;2023-04-20T05:25:36;16.83;;;12.63;;
52816;SDS011;38687;43.330;21.924;2023-04-20T05:28:02;17.42;;;12.48;;
52816;SDS011;38687;43.330;21.924;2023-04-20T05:30:27;18.23;;;12.30;;
52816;SDS011;38687;43.330;21.924;2023-04-20T05:32:52;16.33;;;12.20;;
52816;SDS011;38687;43.330;21.924;2023-04-20T05:35:18;12.73;;;11.20;;
52816;SDS011;38687;43.330;21.924;2023-04-20T05:37:44;13.02;;;10.85;;
52816;SDS011;38687;43.330;21.924;2023-04-20T05:40:11;17.83;;;13.02;;
52816;SDS011;38687;43.330;21.924;2023-04-20T05:42:36;20.35;;;14.10;;
52816;SDS011;38687;43.330;21.924;2023-04-20T05:45:02;30.73;;;18.63;;
52816;SDS011;38687;43.330;21.924;2023-04-20T05:47:32;30.85;;;17.70;;
52816;SDS011;38687;43.330;21.924;2023-04-20T05:49:57;24.45;;;15.80;;
52816;SDS011;38687;43.330;21.924;2023-04-20T05:52:22;24.42;;;17.02;;
52816;SDS011;38687;43.330;21.924;2023-04-20T05:54:48;25.52;;;18.58;;
52816;SDS011;38687;43.330;21.924;2023-04-20T05:57:13;21.23;;;15.00;;
52816;SDS011;38687;43.330;21.924;2023-04-20T05:59:39;22.75;;;15.68;;
52816;SDS011;38687;43.330;21.924;2023-04-20T06:02:05;30.73;;;20.80;;
52816;SDS011;38687;43.330;21.924;2023-04-20T06:04:33;32.72;;;23.10;;
52816;SDS011;38687;43.330;21.924;2023-04-20T06:07:00;28.70;;;19.83;;
52816;SDS011;38687;43.330;21.924;2023-04-20T06:09:25;33.33;;;27.55;;
52816;SDS011;38687;43.330;21.924;2023-04-20T06:11:51;31.23;;;19.77;;
52816;SDS011;38687;43.330;21.924;2023-04-20T06:14:16;27.77;;;19.40;;
52816;SDS011;38687;43.330;21.924;2023-04-20T06:16:42;25.05;;;18.50;;
52816;SDS011;38687;43.330;21.924;2023-04-20T06:19:07;25.92;;;17.67;;
52816;SDS011;38687;43.330;21.924;2023-04-20T06:21:33;23.92;;;17.05;;
52816;SDS011;38687;43.330;21.924;2023-04-20T06:23:59;34.28;;;21.02;;
52816;SDS011;38687;43.330;21.924;2023-04-20T06:26:24;29.63;;;17.58;;
52816;SDS011;38687;43.330;21.924;2023-04-20T06:28:50;29.20;;;18.20;;
52816;SDS011;38687;43.330;21.924;2023-04-20T06:31:17;27.95;;;18.17;;
52816;SDS011;38687;43.330;21.924;2023-04-20T06:33:43;29.42;;;18.40;;
52816;SDS011;38687;43.330;21.924;2023-04-20T06:36:09;28.35;;;17.95;;
52816;SDS011;38687;43.330;21.924;2023-04-20T06:38:34;26.63;;;16.27;;
52816;SDS011;38687;43.330;21.924;2023-04-20T06:41:00;27.40;;;17.58;;
52816;SDS011;38687;43.330;21.924;2023-04-20T06:43:28;26.77;;;19.33;;
52816;SDS011;38687;43.330;21.924;2023-04-20T06:45:54;26.77;;;17.75;;
52816;SDS011;38687;43.330;21.924;2023-04-20T06:48:20;26.60;;;18.55;;
52816;SDS011;38687;43.330;21.924;2023-04-20T06:50:48;28.02;;;18.10;;
52816;SDS011;38687;43.330;21.924;2023-04-20T06:53:17;24.27;;;17.05;;
52816;SDS011;38687;43.330;21.924;2023-04-20T06:55:43;26.80;;;17.25;;
52816;SDS011;38687;43.330;21.924;2023-04-20T06:58:08;27.00;;;19.15;;
52816;SDS011;38687;43.330;21.924;2023-04-20T07:00:33;39.35;;;26.00;;
52816;SDS011;38687;43.330;21.924;2023-04-20T07:02:59;30.02;;;18.75;;
52816;SDS011;38687;43.330;21.924;2023-04-20T07:05:25;26.98;;;17.52;;
52816;SDS011;38687;43.330;21.924;2023-04-20T07:07:52;25.85;;;17.40;;
52816;SDS011;38687;43.330;21.924;2023-04-20T07:10:18;24.58;;;16.42;;
52816;SDS011;38687;43.330;21.924;2023-04-20T07:12:44;25.70;;;16.60;;
52816;SDS011;38687;43.330;21.924;2023-04-20T07:15:10;21.98;;;15.32;;
52816;SDS011;38687;43.330;21.924;2023-04-20T07:17:36;16.20;;;10.98;;
52816;SDS011;38687;43.330;21.924;2023-04-20T07:20:01;17.13;;;11.40;;
52816;SDS011;38687;43.330;21.924;2023-04-20T07:22:31;15.18;;;10.48;;
52816;SDS011;38687;43.330;21.924;2023-04-20T07:24:59;10.75;;;8.80;;
52816;SDS011;38687;43.330;21.924;2023-04-20T07:27:25;13.35;;;9.27;;
52816;SDS011;38687;43.330;21.924;2023-04-20T07:29:51;12.82;;;9.68;;
52816;SDS011;38687;43.330;21.924;2023-04-20T07:32:17;10.85;;;8.98;;
52816;SDS011;38687;43.330;21.924;2023-04-20T07:34:42;15.32;;;10.07;;
52816;SDS011;38687;43.330;21.924;2023-04-20T07:37:08;13.77;;;9.55;;
52816;SDS011;38687;43.330;21.924;2023-04-20T07:39:33;12.27;;;8.95;;
52816;SDS011;38687;43.330;21.924;2023-04-20T07:42:01;16.88;;;11.07;;
52816;SDS011;38687;43.330;21.924;2023-04-20T07:44:27;16.90;;;10.77;;
52816;SDS011;38687;43.330;21.924;2023-04-20T07:46:52;12.65;;;10.10;;
52816;SDS011;38687;43.330;21.924;2023-04-20T07:49:18;15.35;;;11.18;;
52816;SDS011;38687;43.330;21.924;2023-04-20T07:51:44;12.10;;;9.25;;
52816;SDS011;38687;43.330;21.924;2023-04-20T07:54:09;11.75;;;9.32;;
52816;SDS011;38687;43.330;21.924;2023-04-20T07:56:34;15.07;;;9.30;;
52816;SDS011;38687;43.330;21.924;2023-04-20T07:59:00;9.15;;;7.00;;
52816;SDS011;38687;43.330;21.924;2023-04-20T08:01:25;7.38;;;6.68;;
52816;SDS011;38687;43.330;21.924;2023-04-20T08:03:51;8.60;;;7.25;;
52816;SDS011;38687;43.330;21.924;2023-04-20T08:06:18;9.10;;;7.70;;
52816;SDS011;38687;43.330;21.924;2023-04-20T08:08:44;10.73;;;6.90;;
52816;SDS011;38687;43.330;21.924;2023-04-20T08:11:10;11.48;;;8.98;;
52816;SDS011;38687;43.330;21.924;2023-04-20T08:13:36;14.60;;;8.27;;
52816;SDS011;38687;43.330;21.924;2023-04-20T08:16:02;11.35;;;7.28;;
52816;SDS011;38687;43.330;21.924;2023-04-20T08:18:27;10.20;;;7.22;;
52816;SDS011;38687;43.330;21.924;2023-04-20T08:20:54;13.80;;;7.90;;
52816;SDS011;38687;43.330;21.924;2023-04-20T08:23:20;12.75;;;7.75;;
52816;SDS011;38687;43.330;21.924;2023-04-20T08:25:51;9.82;;;6.65;;
52816;SDS011;38687;43.330;21.924;2023-04-20T08:28:20;11.63;;;7.05;;
52816;SDS011;38687;43.330;21.924;2023-04-20T08:30:49;10.45;;;8.52;;
52816;SDS011;38687;43.330;21.924;2023-04-20T08:33:15;8.48;;;7.30;;
52816;SDS011;38687;43.330;21.924;2023-04-20T08:35:41;11.73;;;7.50;;
52816;SDS011;38687;43.330;21.924;2023-04-20T08:38:07;10.48;;;7.50;;
52816;SDS011;38687;43.330;21.924;2023-04-20T08:40:33;11.63;;;8.10;;
52816;SDS011;38687;43.330;21.924;2023-04-20T08:43:00;10.18;;;7.30;;
52816;SDS011;38687;43.330;21.924;2023-04-20T08:45:26;9.60;;;7.00;;
52816;SDS011;38687;43.330;21.924;2023-04-20T08:47:52;11.32;;;8.18;;
52816;SDS011;38687;43.330;21.924;2023-04-20T08:50:18;12.07;;;7.55;;
52816;SDS011;38687;43.330;21.924;2023-04-20T08:52:46;9.65;;;7.40;;
52816;SDS011;38687;43.330;21.924;2023-04-20T08:55:15;9.80;;;7.40;;
52816;SDS011;38687;43.330;21.924;2023-04-20T08:57:42;9.63;;;6.55;;
52816;SDS011;38687;43.330;21.924;2023-04-20T09:00:07;9.88;;;6.53;;
52816;SDS011;38687;43.330;21.924;2023-04-20T09:02:35;9.50;;;6.55;;
52816;SDS011;38687;43.330;21.924;2023-04-20T09:05:29;10.25;;;6.57;;
52816;SDS011;38687;43.330;21.924;2023-04-20T09:07:57;11.50;;;7.90;;
52816;SDS011;38687;43.330;21.924;2023-04-20T09:10:24;21.80;;;14.65;;
52816;SDS011;38687;43.330;21.924;2023-04-20T09:12:50;12.00;;;7.10;;
52816;SDS011;38687;43.330;21.924;2023-04-20T09:15:29;8.95;;;7.13;;
52816;SDS011;38687;43.330;21.924;2023-04-20T09:17:55;8.20;;;6.65;;
52816;SDS011;38687;43.330;21.924;2023-04-20T09:20:28;7.88;;;6.38;;
52816;SDS011;38687;43.330;21.924;2023-04-20T09:23:08;8.52;;;6.40;;
52816;SDS011;38687;43.330;21.924;2023-04-20T09:25:35;8.15;;;5.95;;
52816;SDS011;38687;43.330;21.924;2023-04-20T09:28:01;8.05;;;6.50;;
52816;SDS011;38687;43.330;21.924;2023-04-20T09:30:40;8.70;;;5.82;;
52816;SDS011;38687;43.330;21.924;2023-04-20T09:33:07;6.15;;;5.20;;
52816;SDS011;38687;43.330;21.924;2023-04-20T09:35:35;9.43;;;5.45;;
52816;SDS011;38687;43.330;21.924;2023-04-20T09:38:02;6.70;;;5.47;;
52816;SDS011;38687;43.330;21.924;2023-04-20T09:40:28;6.72;;;4.88;;
52816;SDS011;38687;43.330;21.924;2023-04-20T09:42:54;8.68;;;5.13;;
52816;SDS011;38687;43.330;21.924;2023-04-20T09:45:22;7.50;;;5.05;;
52816;SDS011;38687;43.330;21.924;2023-04-20T09:47:49;7.70;;;5.05;;
52816;SDS011;38687;43.330;21.924;2023-04-20T09:50:16;9.13;;;4.75;;
52816;SDS011;38687;43.330;21.924;2023-04-20T09:52:42;7.82;;;4.68;;
52816;SDS011;38687;43.330;21.924;2023-04-20T09:55:09;6.10;;;4.53;;
52816;SDS011;38687;43.330;21.924;2023-04-20T09:57:35;6.15;;;4.70;;
52816;SDS011;38687;43.330;21.924;2023-04-20T10:00:01;7.55;;;4.35;;
52816;SDS011;38687;43.330;21.924;2023-04-20T10:02:26;6.82;;;4.32;;
52816;SDS011;38687;43.330;21.924;2023-04-20T10:04:52;5.30;;;4.80;;
52816;SDS011;38687;43.330;21.924;2023-04-20T10:07:24;5.03;;;3.70;;
52816;SDS011;38687;43.330;21.924;2023-04-20T10:10:08;5.57;;;3.30;;
52816;SDS011;38687;43.330;21.924;2023-04-20T10:12:54;4.95;;;2.92;;
52816;SDS011;38687;43.330;21.924;2023-04-20T10:15:20;6.15;;;3.17;;
52816;SDS011;38687;43.330;21.924;2023-04-20T10:17:47;5.72;;;3.20;;
52816;SDS011;38687;43.330;21.924;2023-04-20T10:20:19;5.47;;;3.60;;
52816;SDS011;38687;43.330;21.924;2023-04-20T10:22:46;4.60;;;3.97;;
52816;SDS011;38687;43.330;21.924;2023-04-20T10:25:13;5.78;;;3.70;;
52816;SDS011;38687;43.330;21.924;2023-04-20T10:27:56;5.38;;;4.03;;
52816;SDS011;38687;43.330;21.924;2023-04-20T10:30:28;3.58;;;3.25;;
52816;SDS011;38687;43.330;21.924;2023-04-20T10:33:01;5.28;;;2.97;;
52816;SDS011;38687;43.330;21.924;2023-04-20T10:35:40;4.22;;;2.85;;
52816;SDS011;38687;43.330;21.924;2023-04-20T10:38:07;4.40;;;3.55;;
52816;SDS011;38687;43.330;21.924;2023-04-20T10:40:34;6.03;;;3.65;;
52816;SDS011;38687;43.330;21.924;2023-04-20T10:42:59;4.05;;;3.75;;
52816;SDS011;38687;43.330;21.924;2023-04-20T10:45:35;4.10;;;3.25;;
52816;SDS011;38687;43.330;21.924;2023-04-20T10:48:07;6.70;;;3.60;;
52816;SDS011;38687;43.330;21.924;2023-04-20T10:50:33;4.00;;;3.20;;
52816;SDS011;38687;43.330;21.924;2023-04-20T10:52:58;3.80;;;2.53;;
52816;SDS011;38687;43.330;21.924;2023-04-20T10:55:25;3.88;;;3.08;;
52816;SDS011;38687;43.330;21.924;2023-04-20T10:57:51;3.92;;;3.35;;
52816;SDS011;38687;43.330;21.924;2023-04-20T11:00:18;4.20;;;3.53;;
52816;SDS011;38687;43.330;21.924;2023-04-20T11:02:48;4.15;;;3.15;;
52816;SDS011;38687;43.330;21.924;2023-04-20T11:05:15;3.95;;;3.42;;
52816;SDS011;38687;43.330;21.924;2023-04-20T11:07:46;5.35;;;3.47;;
52816;SDS011;38687;43.330;21.924;2023-04-20T11:10:15;4.22;;;3.25;;
52816;SDS011;38687;43.330;21.924;2023-04-20T11:12:41;6.82;;;3.88;;
52816;SDS011;38687;43.330;21.924;2023-04-20T11:15:07;5.55;;;4.05;;
52816;SDS011;38687;43.330;21.924;2023-04-20T11:17:34;4.72;;;3.45;;
52816;SDS011;38687;43.330;21.924;2023-04-20T11:20:10;6.85;;;3.53;;
52816;SDS011;38687;43.330;21.924;2023-04-20T11:22:38;8.68;;;3.70;;
52816;SDS011;38687;43.330;21.924;2023-04-20T11:25:04;5.57;;;3.42;;
52816;SDS011;38687;43.330;21.924;2023-04-20T11:27:31;4.35;;;3.47;;
52816;SDS011;38687;43.330;21.924;2023-04-20T11:29:58;3.95;;;2.90;;
52816;SDS011;38687;43.330;21.924;2023-04-20T11:32:24;6.78;;;3.30;;
52816;SDS011;38687;43.330;21.924;2023-04-20T11:35:00;6.22;;;3.85;;
52816;SDS011;38687;43.330;21.924;2023-04-20T11:37:31;6.10;;;4.88;;
52816;SDS011;38687;43.330;21.924;2023-04-20T11:40:04;4.38;;;3.80;;
52816;SDS011;38687;43.330;21.924;2023-04-20T11:42:33;4.95;;;3.90;;
52816;SDS011;38687;43.330;21.924;2023-04-20T11:45:02;4.05;;;3.65;;
52816;SDS011;38687;43.330;21.924;2023-04-20T11:47:28;4.72;;;3.63;;
52816;SDS011;38687;43.330;21.924;2023-04-20T11:49:53;7.10;;;4.20;;
52816;SDS011;38687;43.330;21.924;2023-04-20T11:52:18;4.45;;;4.03;;
52816;SDS011;38687;43.330;21.924;2023-04-20T11:54:44;8.25;;;4.30;;
52816;SDS011;38687;43.330;21.924;2023-04-20T11:57:10;5.80;;;4.40;;
52816;SDS011;38687;43.330;21.924;2023-04-20T11:59:35;5.55;;;4.95;;
52816;SDS011;38687;43.330;21.924;2023-04-20T12:02:01;7.25;;;5.28;;
52816;SDS011;38687;43.330;21.924;2023-04-20T12:04:28;5.70;;;4.97;;
52816;SDS011;38687;43.330;21.924;2023-04-20T12:06:56;10.82;;;7.97;;
52816;SDS011;38687;43.330;21.924;2023-04-20T12:09:26;7.25;;;4.75;;
52816;SDS011;38687;43.330;21.924;2023-04-20T12:11:52;5.85;;;4.78;;
52816;SDS011;38687;43.330;21.924;2023-04-20T12:14:18;4.45;;;4.07;;
52816;SDS011;38687;43.330;21.924;2023-04-20T12:16:43;5.72;;;4.10;;
52816;SDS011;38687;43.330;21.924;2023-04-20T12:19:09;5.72;;;3.95;;
52816;SDS011;38687;43.330;21.924;2023-04-20T12:21:34;6.05;;;4.50;;
52816;SDS011;38687;43.330;21.924;2023-04-20T12:24:00;5.05;;;4.05;;
52816;SDS011;38687;43.330;21.924;2023-04-20T12:26:25;5.30;;;4.32;;
52816;SDS011;38687;43.330;21.924;2023-04-20T12:28:51;4.50;;;4.10;;
52816;SDS011;38687;43.330;21.924;2023-04-20T12:31:17;5.38;;;4.20;;
52816;SDS011;38687;43.330;21.924;2023-04-20T12:33:43;7.50;;;4.70;;
52816;SDS011;38687;43.330;21.924;2023-04-20T12:36:09;4.35;;;3.30;;
52816;SDS011;38687;43.330;21.924;2023-04-20T12:38:34;7.45;;;4.93;;
52816;SDS011;38687;43.330;21.924;2023-04-20T12:41:00;4.63;;;4.22;;
52816;SDS011;38687;43.330;21.924;2023-04-20T12:43:26;7.25;;;4.53;;
52816;SDS011;38687;43.330;21.924;2023-04-20T12:45:52;5.35;;;4.10;;
52816;SDS011;38687;43.330;21.924;2023-04-20T12:48:18;5.85;;;4.78;;
52816;SDS011;38687;43.330;21.924;2023-04-20T12:50:43;6.38;;;4.03;;
52816;SDS011;38687;43.330;21.924;2023-04-20T12:53:09;5.32;;;4.43;;
52816;SDS011;38687;43.330;21.924;2023-04-20T12:55:35;7.70;;;4.88;;
52816;SDS011;38687;43.330;21.924;2023-04-20T12:58:00;5.55;;;4.57;;
52816;SDS011;38687;43.330;21.924;2023-04-20T13:00:26;4.80;;;3.88;;
52816;SDS011;38687;43.330;21.924;2023-04-20T13:02:51;8.27;;;4.93;;
52816;SDS011;38687;43.330;21.924;2023-04-20T13:05:17;5.28;;;4.60;;
52816;SDS011;38687;43.330;21.924;2023-04-20T13:07:43;5.38;;;4.57;;
52816;SDS011;38687;43.330;21.924;2023-04-20T13:10:09;5.97;;;4.55;;
52816;SDS011;38687;43.330;21.924;2023-04-20T13:12:34;6.40;;;4.38;;
52816;SDS011;38687;43.330;21.924;2023-04-20T13:15:00;5.07;;;4.50;;
52816;SDS011;38687;43.330;21.924;2023-04-20T13:17:25;8.18;;;4.70;;
52816;SDS011;38687;43.330;21.924;2023-04-20T13:19:52;8.20;;;5.07;;
52816;SDS011;38687;43.330;21.924;2023-04-20T13:22:17;6.72;;;4.30;;
52816;SDS011;38687;43.330;21.924;2023-04-20T13:24:43;5.43;;;4.75;;
52816;SDS011;38687;43.330;21.924;2023-04-20T13:27:08;6.18;;;4.68;;
52816;SDS011;38687;43.330;21.924;2023-04-20T13:29:34;7.22;;;5.00;;
52816;SDS011;38687;43.330;21.924;2023-04-20T13:32:00;7.50;;;5.30;;
52816;SDS011;38687;43.330;21.924;2023-04-20T13:34:25;5.18;;;4.50;;
52816;SDS011;38687;43.330;21.924;2023-04-20T13:36:51;5.15;;;4.68;;
52816;SDS011;38687;43.330;21.924;2023-04-20T13:39:16;5.75;;;4.70;;
52816;SDS011;38687;43.330;21.924;2023-04-20T13:41:44;8.13;;;5.40;;
52816;SDS011;38687;43.330;21.924;2023-04-20T13:44:09;11.90;;;5.78;;
52816;SDS011;38687;43.330;21.924;2023-04-20T13:46:40;4.82;;;4.05;;
52816;SDS011;38687;43.330;21.924;2023-04-20T13:49:06;5.47;;;4.95;;
52816;SDS011;38687;43.330;21.924;2023-04-20T13:51:32;6.63;;;5.10;;
52816;SDS011;38687;43.330;21.924;2023-04-20T13:53:57;7.90;;;5.00;;
52816;SDS011;38687;43.330;21.924;2023-04-20T13:56:23;7.78;;;4.40;;
52816;SDS011;38687;43.330;21.924;2023-04-20T13:58:48;5.78;;;4.07;;
52816;SDS011;38687;43.330;21.924;2023-04-20T14:01:13;8.25;;;4.82;;
52816;SDS011;38687;43.330;21.924;2023-04-20T14:03:40;5.25;;;3.78;;
52816;SDS011;38687;43.330;21.924;2023-04-20T14:06:06;6.55;;;4.25;;
52816;SDS011;38687;43.330;21.924;2023-04-20T14:08:31;4.72;;;4.20;;
52816;SDS011;38687;43.330;21.924;2023-04-20T14:10:57;4.32;;;3.92;;
52816;SDS011;38687;43.330;21.924;2023-04-20T14:13:22;5.60;;;4.38;;
52816;SDS011;38687;43.330;21.924;2023-04-20T14:15:48;5.53;;;4.53;;
52816;SDS011;38687;43.330;21.924;2023-04-20T14:18:15;9.30;;;5.65;;